sensor_id;sensor_type;location;lat;lon;timestamp;P1;durP1;ratioP1;P2;durP2;ratioP2
24637;SDS011;12773;50.162;8.548;2023-02-01T00:01:59;8.00;;;4.58;;
24637;SDS011;12773;50.162;8.548;2023-02-01T00:04:47;10.15;;;4.42;;
24637;SDS011;12773;50.162;8.548;2023-02-01T00:07:34;9.85;;;4.62;;
24637;SDS011;12773;50.162;8.548;2023-02-01T00:10:22;7.50;;;4.12;;
24637;SDS011;12773;50.162;8.548;2023-02-01T00:13:09;10.35;;;5.25;;
24637;SDS011;12773;50.162;8.548;2023-02-01T00:16:07;8.15;;;4.58;;
24637;SDS011;12773;50.162;8.548;2023-02-01T00:18:59;9.80;;;5.10;;
24637;SDS011;12773;50.162;8.548;2023-02-01T00:21:48;7.83;;;5.15;;
24637;SDS011;12773;50.162;8.548;2023-02-01T00:24:35;8.95;;;5.30;;
24637;SDS011;12773;50.162;8.548;2023-02-01T00:27:23;8.83;;;5.35;;
24637;SDS011;12773;50.162;8.548;2023-02-01T00:30:10;9.35;;;5.65;;
24637;SDS011;12773;50.162;8.548;2023-02-01T00:32:57;10.03;;;5.37;;
24637;SDS011;12773;50.162;8.548;2023-02-01T00:35:44;11.38;;;5.75;;
24637;SDS011;12773;50.162;8.548;2023-02-01T00:38:33;11.35;;;6.58;;
24637;SDS011;12773;50.162;8.548;2023-02-01T00:41:22;10.78;;;6.20;;
24637;SDS011;12773;50.162;8.548;2023-02-01T00:44:09;12.18;;;6.97;;
24637;SDS011;12773;50.162;8.548;2023-02-01T00:46:57;12.88;;;6.53;;
24637;SDS011;12773;50.162;8.548;2023-02-01T00:49:44;12.45;;;6.78;;
24637;SDS011;12773;50.162;8.548;2023-02-01T00:52:31;13.45;;;7.05;;
24637;SDS011;12773;50.162;8.548;2023-02-01T00:55:19;11.70;;;7.00;;
24637;SDS011;12773;50.162;8.548;2023-02-01T00:58:06;10.85;;;6.67;;
24637;SDS011;12773;50.162;8.548;2023-02-01T01:01:01;14.38;;;6.22;;
24637;SDS011;12773;50.162;8.548;2023-02-01T01:03:57;15.05;;;6.90;;
24637;SDS011;12773;50.162;8.548;2023-02-01T01:06:42;15.70;;;7.22;;
24637;SDS011;12773;50.162;8.548;2023-02-01T01:09:29;11.75;;;5.85;;
24637;SDS011;12773;50.162;8.548;2023-02-01T01:12:17;14.05;;;5.80;;
24637;SDS011;12773;50.162;8.548;2023-02-01T01:15:05;9.85;;;5.58;;
24637;SDS011;12773;50.162;8.548;2023-02-01T01:17:52;11.50;;;6.28;;
24637;SDS011;12773;50.162;8.548;2023-02-01T01:20:40;12.10;;;5.37;;
24637;SDS011;12773;50.162;8.548;2023-02-01T01:23:27;10.58;;;6.35;;
24637;SDS011;12773;50.162;8.548;2023-02-01T01:26:20;10.28;;;6.87;;
24637;SDS011;12773;50.162;8.548;2023-02-01T01:29:05;12.25;;;6.60;;
24637;SDS011;12773;50.162;8.548;2023-02-01T01:31:52;12.47;;;6.50;;
24637;SDS011;12773;50.162;8.548;2023-02-01T01:34:39;11.60;;;6.33;;
24637;SDS011;12773;50.162;8.548;2023-02-01T01:37:26;9.15;;;5.72;;
24637;SDS011;12773;50.162;8.548;2023-02-01T01:40:13;10.45;;;6.10;;
24637;SDS011;12773;50.162;8.548;2023-02-01T01:43:01;10.93;;;5.75;;
24637;SDS011;12773;50.162;8.548;2023-02-01T01:45:49;10.48;;;6.30;;
24637;SDS011;12773;50.162;8.548;2023-02-01T01:48:36;9.23;;;6.05;;
24637;SDS011;12773;50.162;8.548;2023-02-01T01:51:24;12.68;;;6.05;;
24637;SDS011;12773;50.162;8.548;2023-02-01T01:54:16;13.22;;;6.45;;
24637;SDS011;12773;50.162;8.548;2023-02-01T01:57:06;10.95;;;6.55;;
24637;SDS011;12773;50.162;8.548;2023-02-01T01:59:58;8.60;;;6.10;;
24637;SDS011;12773;50.162;8.548;2023-02-01T02:02:47;14.07;;;7.10;;
24637;SDS011;12773;50.162;8.548;2023-02-01T02:05:36;11.48;;;6.95;;
24637;SDS011;12773;50.162;8.548;2023-02-01T02:08:25;10.50;;;6.30;;
24637;SDS011;12773;50.162;8.548;2023-02-01T02:11:12;13.98;;;6.92;;
24637;SDS011;12773;50.162;8.548;2023-02-01T02:14:03;11.78;;;6.42;;
24637;SDS011;12773;50.162;8.548;2023-02-01T02:19:50;10.90;;;6.90;;
24637;SDS011;12773;50.162;8.548;2023-02-01T02:22:52;15.32;;;7.35;;
24637;SDS011;12773;50.162;8.548;2023-02-01T02:35:26;11.57;;;6.78;;
24637;SDS011;12773;50.162;8.548;2023-02-01T02:38:27;12.37;;;7.20;;
24637;SDS011;12773;50.162;8.548;2023-02-01T02:41:22;13.20;;;6.85;;
24637;SDS011;12773;50.162;8.548;2023-02-01T02:47:55;11.40;;;6.62;;
24637;SDS011;12773;50.162;8.548;2023-02-01T02:51:07;14.65;;;6.70;;
24637;SDS011;12773;50.162;8.548;2023-02-01T02:54:15;11.22;;;6.05;;
24637;SDS011;12773;50.162;8.548;2023-02-01T02:57:29;12.13;;;5.90;;
24637;SDS011;12773;50.162;8.548;2023-02-01T03:00:36;11.75;;;6.10;;
24637;SDS011;12773;50.162;8.548;2023-02-01T03:03:42;10.18;;;5.60;;
24637;SDS011;12773;50.162;8.548;2023-02-01T03:06:48;12.33;;;5.83;;
24637;SDS011;12773;50.162;8.548;2023-02-01T03:09:35;10.88;;;6.45;;
24637;SDS011;12773;50.162;8.548;2023-02-01T03:12:25;12.20;;;5.83;;
24637;SDS011;12773;50.162;8.548;2023-02-01T03:15:38;12.30;;;5.97;;
24637;SDS011;12773;50.162;8.548;2023-02-01T03:18:46;14.25;;;5.45;;
24637;SDS011;12773;50.162;8.548;2023-02-01T03:21:41;11.00;;;5.70;;
24637;SDS011;12773;50.162;8.548;2023-02-01T03:24:46;13.30;;;5.67;;
24637;SDS011;12773;50.162;8.548;2023-02-01T03:27:40;14.53;;;5.47;;
24637;SDS011;12773;50.162;8.548;2023-02-01T03:30:35;15.90;;;6.25;;
24637;SDS011;12773;50.162;8.548;2023-02-01T03:33:25;11.10;;;5.12;;
24637;SDS011;12773;50.162;8.548;2023-02-01T03:36:17;11.57;;;5.33;;
24637;SDS011;12773;50.162;8.548;2023-02-01T03:42:14;9.15;;;5.08;;
24637;SDS011;12773;50.162;8.548;2023-02-01T03:45:20;12.25;;;5.28;;
24637;SDS011;12773;50.162;8.548;2023-02-01T03:48:05;14.83;;;5.00;;
24637;SDS011;12773;50.162;8.548;2023-02-01T03:50:54;13.58;;;5.30;;
24637;SDS011;12773;50.162;8.548;2023-02-01T03:53:44;9.43;;;4.35;;
24637;SDS011;12773;50.162;8.548;2023-02-01T03:56:36;10.15;;;5.05;;
24637;SDS011;12773;50.162;8.548;2023-02-01T03:59:26;12.00;;;5.33;;
24637;SDS011;12773;50.162;8.548;2023-02-01T04:02:13;10.08;;;4.87;;
24637;SDS011;12773;50.162;8.548;2023-02-01T04:05:00;9.23;;;4.45;;
24637;SDS011;12773;50.162;8.548;2023-02-01T04:07:47;8.40;;;4.72;;
24637;SDS011;12773;50.162;8.548;2023-02-01T04:10:35;10.28;;;5.42;;
24637;SDS011;12773;50.162;8.548;2023-02-01T04:13:22;8.53;;;4.62;;
24637;SDS011;12773;50.162;8.548;2023-02-01T04:16:09;9.95;;;4.90;;
24637;SDS011;12773;50.162;8.548;2023-02-01T04:18:57;10.90;;;4.97;;
24637;SDS011;12773;50.162;8.548;2023-02-01T04:21:44;10.72;;;5.30;;
24637;SDS011;12773;50.162;8.548;2023-02-01T04:24:31;10.58;;;5.50;;
24637;SDS011;12773;50.162;8.548;2023-02-01T04:27:19;10.32;;;5.67;;
24637;SDS011;12773;50.162;8.548;2023-02-01T04:30:06;12.07;;;5.42;;
24637;SDS011;12773;50.162;8.548;2023-02-01T04:32:56;13.78;;;5.47;;
24637;SDS011;12773;50.162;8.548;2023-02-01T04:35:44;10.13;;;5.47;;
24637;SDS011;12773;50.162;8.548;2023-02-01T04:38:31;9.95;;;5.37;;
24637;SDS011;12773;50.162;8.548;2023-02-01T04:41:19;12.13;;;6.05;;
24637;SDS011;12773;50.162;8.548;2023-02-01T04:44:15;10.28;;;5.15;;
24637;SDS011;12773;50.162;8.548;2023-02-01T04:47:03;14.20;;;5.28;;
24637;SDS011;12773;50.162;8.548;2023-02-01T04:49:51;11.65;;;5.22;;
24637;SDS011;12773;50.162;8.548;2023-02-01T04:52:38;10.93;;;5.60;;
24637;SDS011;12773;50.162;8.548;2023-02-01T04:55:26;13.03;;;5.58;;
24637;SDS011;12773;50.162;8.548;2023-02-01T04:58:14;13.60;;;5.85;;
24637;SDS011;12773;50.162;8.548;2023-02-01T05:01:04;11.18;;;5.40;;
24637;SDS011;12773;50.162;8.548;2023-02-01T05:03:54;14.58;;;5.62;;
24637;SDS011;12773;50.162;8.548;2023-02-01T05:06:41;13.28;;;5.37;;
24637;SDS011;12773;50.162;8.548;2023-02-01T05:09:29;11.68;;;5.65;;
24637;SDS011;12773;50.162;8.548;2023-02-01T05:12:16;8.80;;;4.87;;
24637;SDS011;12773;50.162;8.548;2023-02-01T05:15:21;13.88;;;4.83;;
24637;SDS011;12773;50.162;8.548;2023-02-01T05:18:09;11.12;;;4.75;;
24637;SDS011;12773;50.162;8.548;2023-02-01T05:20:56;14.18;;;5.25;;
24637;SDS011;12773;50.162;8.548;2023-02-01T05:23:43;9.90;;;5.10;;
24637;SDS011;12773;50.162;8.548;2023-02-01T05:26:49;18.30;;;5.00;;
24637;SDS011;12773;50.162;8.548;2023-02-01T05:29:36;15.78;;;5.12;;
24637;SDS011;12773;50.162;8.548;2023-02-01T05:32:23;14.13;;;5.12;;
24637;SDS011;12773;50.162;8.548;2023-02-01T05:35:10;9.03;;;4.70;;
24637;SDS011;12773;50.162;8.548;2023-02-01T05:37:57;15.50;;;4.75;;
24637;SDS011;12773;50.162;8.548;2023-02-01T05:40:44;7.90;;;4.30;;
24637;SDS011;12773;50.162;8.548;2023-02-01T05:43:33;10.18;;;4.47;;
24637;SDS011;12773;50.162;8.548;2023-02-01T05:46:20;15.23;;;4.30;;
24637;SDS011;12773;50.162;8.548;2023-02-01T05:49:08;12.98;;;4.15;;
24637;SDS011;12773;50.162;8.548;2023-02-01T05:51:55;11.50;;;3.80;;
24637;SDS011;12773;50.162;8.548;2023-02-01T05:54:43;11.35;;;3.87;;
24637;SDS011;12773;50.162;8.548;2023-02-01T05:57:33;12.00;;;4.12;;
24637;SDS011;12773;50.162;8.548;2023-02-01T06:00:21;11.78;;;4.30;;
24637;SDS011;12773;50.162;8.548;2023-02-01T06:03:09;12.55;;;3.87;;
24637;SDS011;12773;50.162;8.548;2023-02-01T06:05:56;30.48;;;12.65;;
24637;SDS011;12773;50.162;8.548;2023-02-01T06:08:43;26.25;;;7.33;;
24637;SDS011;12773;50.162;8.548;2023-02-01T06:11:31;14.87;;;4.55;;
24637;SDS011;12773;50.162;8.548;2023-02-01T06:14:18;17.35;;;4.22;;
24637;SDS011;12773;50.162;8.548;2023-02-01T06:17:06;10.20;;;3.62;;
24637;SDS011;12773;50.162;8.548;2023-02-01T06:19:53;15.10;;;3.65;;
24637;SDS011;12773;50.162;8.548;2023-02-01T06:22:41;18.95;;;4.05;;
24637;SDS011;12773;50.162;8.548;2023-02-01T06:25:28;14.40;;;3.83;;
24637;SDS011;12773;50.162;8.548;2023-02-01T06:28:16;11.73;;;3.70;;
24637;SDS011;12773;50.162;8.548;2023-02-01T06:31:03;16.75;;;4.15;;
24637;SDS011;12773;50.162;8.548;2023-02-01T06:33:54;12.45;;;3.47;;
24637;SDS011;12773;50.162;8.548;2023-02-01T06:36:41;15.00;;;4.05;;
24637;SDS011;12773;50.162;8.548;2023-02-01T06:39:28;19.02;;;3.72;;
24637;SDS011;12773;50.162;8.548;2023-02-01T06:42:15;15.68;;;3.42;;
24637;SDS011;12773;50.162;8.548;2023-02-01T06:45:02;14.40;;;4.12;;
24637;SDS011;12773;50.162;8.548;2023-02-01T06:47:52;12.10;;;3.87;;
24637;SDS011;12773;50.162;8.548;2023-02-01T06:50:39;17.25;;;3.90;;
24637;SDS011;12773;50.162;8.548;2023-02-01T06:53:26;17.70;;;4.03;;
24637;SDS011;12773;50.162;8.548;2023-02-01T06:56:14;14.63;;;3.70;;
24637;SDS011;12773;50.162;8.548;2023-02-01T06:59:03;23.80;;;4.08;;
24637;SDS011;12773;50.162;8.548;2023-02-01T07:01:51;17.27;;;3.52;;
24637;SDS011;12773;50.162;8.548;2023-02-01T07:04:38;14.60;;;3.37;;
24637;SDS011;12773;50.162;8.548;2023-02-01T07:07:25;17.65;;;3.70;;
24637;SDS011;12773;50.162;8.548;2023-02-01T07:10:13;17.30;;;3.60;;
24637;SDS011;12773;50.162;8.548;2023-02-01T07:13:00;20.70;;;5.60;;
24637;SDS011;12773;50.162;8.548;2023-02-01T07:15:47;14.10;;;3.50;;
24637;SDS011;12773;50.162;8.548;2023-02-01T07:18:34;22.42;;;3.58;;
24637;SDS011;12773;50.162;8.548;2023-02-01T07:21:21;19.67;;;3.30;;
24637;SDS011;12773;50.162;8.548;2023-02-01T07:24:09;18.23;;;3.37;;
24637;SDS011;12773;50.162;8.548;2023-02-01T07:26:56;17.45;;;2.92;;
24637;SDS011;12773;50.162;8.548;2023-02-01T07:29:43;16.55;;;3.00;;
24637;SDS011;12773;50.162;8.548;2023-02-01T07:32:30;15.45;;;3.27;;
24637;SDS011;12773;50.162;8.548;2023-02-01T07:35:18;13.60;;;3.22;;
24637;SDS011;12773;50.162;8.548;2023-02-01T07:38:05;17.27;;;3.20;;
24637;SDS011;12773;50.162;8.548;2023-02-01T07:40:56;20.62;;;4.05;;
24637;SDS011;12773;50.162;8.548;2023-02-01T07:43:47;12.73;;;4.33;;
24637;SDS011;12773;50.162;8.548;2023-02-01T07:46:36;12.68;;;2.67;;
24637;SDS011;12773;50.162;8.548;2023-02-01T07:49:25;9.30;;;2.33;;
24637;SDS011;12773;50.162;8.548;2023-02-01T07:52:13;12.60;;;2.95;;
24637;SDS011;12773;50.162;8.548;2023-02-01T07:55:02;13.78;;;2.67;;
24637;SDS011;12773;50.162;8.548;2023-02-01T07:57:50;13.35;;;2.40;;
24637;SDS011;12773;50.162;8.548;2023-02-01T08:00:37;20.50;;;3.77;;
24637;SDS011;12773;50.162;8.548;2023-02-01T08:03:42;13.28;;;3.10;;
24637;SDS011;12773;50.162;8.548;2023-02-01T08:06:30;14.35;;;2.98;;
24637;SDS011;12773;50.162;8.548;2023-02-01T08:09:20;15.65;;;3.00;;
24637;SDS011;12773;50.162;8.548;2023-02-01T08:12:07;16.23;;;2.77;;
24637;SDS011;12773;50.162;8.548;2023-02-01T08:14:55;12.10;;;2.40;;
24637;SDS011;12773;50.162;8.548;2023-02-01T08:17:48;14.43;;;2.55;;
24637;SDS011;12773;50.162;8.548;2023-02-01T08:20:36;10.00;;;2.62;;
24637;SDS011;12773;50.162;8.548;2023-02-01T08:23:25;18.32;;;2.80;;
24637;SDS011;12773;50.162;8.548;2023-02-01T08:26:13;9.90;;;2.40;;
24637;SDS011;12773;50.162;8.548;2023-02-01T08:29:03;11.50;;;2.67;;
24637;SDS011;12773;50.162;8.548;2023-02-01T08:31:52;16.17;;;2.60;;
24637;SDS011;12773;50.162;8.548;2023-02-01T08:34:40;17.02;;;2.67;;
24637;SDS011;12773;50.162;8.548;2023-02-01T08:37:27;15.32;;;2.70;;
24637;SDS011;12773;50.162;8.548;2023-02-01T08:40:14;12.23;;;2.35;;
24637;SDS011;12773;50.162;8.548;2023-02-01T08:43:02;27.73;;;5.75;;
24637;SDS011;12773;50.162;8.548;2023-02-01T08:45:50;11.20;;;2.80;;
24637;SDS011;12773;50.162;8.548;2023-02-01T08:48:40;13.83;;;3.20;;
24637;SDS011;12773;50.162;8.548;2023-02-01T08:51:27;17.07;;;2.50;;
24637;SDS011;12773;50.162;8.548;2023-02-01T08:54:14;19.35;;;2.58;;
24637;SDS011;12773;50.162;8.548;2023-02-01T08:57:01;11.70;;;3.12;;
24637;SDS011;12773;50.162;8.548;2023-02-01T08:59:49;13.98;;;3.10;;
24637;SDS011;12773;50.162;8.548;2023-02-01T09:02:36;12.45;;;2.27;;
24637;SDS011;12773;50.162;8.548;2023-02-01T09:05:23;19.07;;;3.37;;
24637;SDS011;12773;50.162;8.548;2023-02-01T09:08:13;14.63;;;2.77;;
24637;SDS011;12773;50.162;8.548;2023-02-01T09:11:02;20.55;;;3.02;;
24637;SDS011;12773;50.162;8.548;2023-02-01T09:13:51;13.40;;;2.08;;
24637;SDS011;12773;50.162;8.548;2023-02-01T09:16:38;10.05;;;2.00;;
24637;SDS011;12773;50.162;8.548;2023-02-01T09:19:25;14.53;;;2.45;;
24637;SDS011;12773;50.162;8.548;2023-02-01T09:22:12;9.43;;;2.60;;
24637;SDS011;12773;50.162;8.548;2023-02-01T09:25:01;12.55;;;1.92;;
24637;SDS011;12773;50.162;8.548;2023-02-01T09:27:49;13.85;;;2.30;;
24637;SDS011;12773;50.162;8.548;2023-02-01T09:30:36;11.08;;;2.40;;
24637;SDS011;12773;50.162;8.548;2023-02-01T09:33:24;13.75;;;2.40;;
24637;SDS011;12773;50.162;8.548;2023-02-01T09:36:13;15.45;;;2.80;;
24637;SDS011;12773;50.162;8.548;2023-02-01T09:39:00;12.93;;;2.12;;
24637;SDS011;12773;50.162;8.548;2023-02-01T09:42:02;13.80;;;2.30;;
24637;SDS011;12773;50.162;8.548;2023-02-01T09:44:57;9.23;;;2.50;;
24637;SDS011;12773;50.162;8.548;2023-02-01T09:47:46;10.93;;;2.15;;
24637;SDS011;12773;50.162;8.548;2023-02-01T09:50:41;14.20;;;2.50;;
24637;SDS011;12773;50.162;8.548;2023-02-01T09:53:33;11.43;;;2.35;;
24637;SDS011;12773;50.162;8.548;2023-02-01T09:56:29;14.00;;;2.67;;
24637;SDS011;12773;50.162;8.548;2023-02-01T10:02:10;12.78;;;1.98;;
24637;SDS011;12773;50.162;8.548;2023-02-01T10:05:05;8.48;;;2.22;;
24637;SDS011;12773;50.162;8.548;2023-02-01T10:14:37;12.28;;;2.30;;
24637;SDS011;12773;50.162;8.548;2023-02-01T10:17:45;10.80;;;2.35;;
24637;SDS011;12773;50.162;8.548;2023-02-01T10:26:51;9.25;;;2.35;;
24637;SDS011;12773;50.162;8.548;2023-02-01T10:29:40;17.55;;;2.08;;
24637;SDS011;12773;50.162;8.548;2023-02-01T10:32:32;10.40;;;2.08;;
24637;SDS011;12773;50.162;8.548;2023-02-01T10:35:27;11.93;;;1.72;;
24637;SDS011;12773;50.162;8.548;2023-02-01T10:38:26;19.62;;;2.80;;
24637;SDS011;12773;50.162;8.548;2023-02-01T10:41:16;10.20;;;2.10;;
24637;SDS011;12773;50.162;8.548;2023-02-01T10:44:14;13.68;;;2.20;;
24637;SDS011;12773;50.162;8.548;2023-02-01T10:47:04;11.57;;;2.10;;
24637;SDS011;12773;50.162;8.548;2023-02-01T10:53:05;17.73;;;2.33;;
24637;SDS011;12773;50.162;8.548;2023-02-01T10:55:53;11.15;;;2.20;;
24637;SDS011;12773;50.162;8.548;2023-02-01T10:58:45;10.70;;;2.67;;
24637;SDS011;12773;50.162;8.548;2023-02-01T11:01:34;10.68;;;2.10;;
24637;SDS011;12773;50.162;8.548;2023-02-01T11:04:24;12.73;;;1.92;;
24637;SDS011;12773;50.162;8.548;2023-02-01T11:07:14;10.18;;;2.35;;
24637;SDS011;12773;50.162;8.548;2023-02-01T11:10:08;9.45;;;2.33;;
24637;SDS011;12773;50.162;8.548;2023-02-01T11:12:58;10.53;;;2.20;;
24637;SDS011;12773;50.162;8.548;2023-02-01T11:15:54;7.75;;;1.98;;
24637;SDS011;12773;50.162;8.548;2023-02-01T11:18:39;8.90;;;1.90;;
24637;SDS011;12773;50.162;8.548;2023-02-01T11:21:27;8.28;;;1.77;;
24637;SDS011;12773;50.162;8.548;2023-02-01T11:24:35;12.13;;;2.45;;
24637;SDS011;12773;50.162;8.548;2023-02-01T11:27:21;14.58;;;2.45;;
24637;SDS011;12773;50.162;8.548;2023-02-01T11:30:29;12.03;;;2.50;;
24637;SDS011;12773;50.162;8.548;2023-02-01T11:33:04;15.50;;;2.50;;
24637;SDS011;12773;50.162;8.548;2023-02-01T11:35:53;12.78;;;2.20;;
24637;SDS011;12773;50.162;8.548;2023-02-01T11:38:52;12.95;;;2.05;;
24637;SDS011;12773;50.162;8.548;2023-02-01T11:41:54;10.78;;;2.58;;
24637;SDS011;12773;50.162;8.548;2023-02-01T11:44:48;8.98;;;2.15;;
24637;SDS011;12773;50.162;8.548;2023-02-01T11:47:39;13.20;;;3.98;;
24637;SDS011;12773;50.162;8.548;2023-02-01T11:53:25;13.78;;;2.35;;
24637;SDS011;12773;50.162;8.548;2023-02-01T12:05:54;16.35;;;3.67;;
24637;SDS011;12773;50.162;8.548;2023-02-01T12:18:02;12.47;;;1.85;;
24637;SDS011;12773;50.162;8.548;2023-02-01T12:27:13;7.10;;;1.62;;
24637;SDS011;12773;50.162;8.548;2023-02-01T12:33:02;12.85;;;2.65;;
24637;SDS011;12773;50.162;8.548;2023-02-01T12:39:02;15.23;;;2.65;;
24637;SDS011;12773;50.162;8.548;2023-02-01T12:41:55;13.20;;;2.33;;
24637;SDS011;12773;50.162;8.548;2023-02-01T12:44:49;9.63;;;1.72;;
24637;SDS011;12773;50.162;8.548;2023-02-01T12:47:48;14.00;;;2.50;;
24637;SDS011;12773;50.162;8.548;2023-02-01T12:50:47;9.48;;;2.60;;
24637;SDS011;12773;50.162;8.548;2023-02-01T12:53:55;11.53;;;1.85;;
24637;SDS011;12773;50.162;8.548;2023-02-01T12:56:54;10.32;;;2.02;;
24637;SDS011;12773;50.162;8.548;2023-02-01T12:59:50;15.50;;;2.33;;
24637;SDS011;12773;50.162;8.548;2023-02-01T13:03:42;8.65;;;1.70;;
24637;SDS011;12773;50.162;8.548;2023-02-01T13:05:53;4.95;;;1.55;;
24637;SDS011;12773;50.162;8.548;2023-02-01T13:08:48;10.20;;;2.52;;
24637;SDS011;12773;50.162;8.548;2023-02-01T13:14:44;11.53;;;3.60;;
24637;SDS011;12773;50.162;8.548;2023-02-01T13:17:33;12.75;;;2.10;;
24637;SDS011;12773;50.162;8.548;2023-02-01T13:20:27;15.43;;;3.37;;
24637;SDS011;12773;50.162;8.548;2023-02-01T13:26:16;12.25;;;2.58;;
24637;SDS011;12773;50.162;8.548;2023-02-01T13:29:04;12.10;;;2.47;;
24637;SDS011;12773;50.162;8.548;2023-02-01T13:32:03;9.63;;;3.00;;
24637;SDS011;12773;50.162;8.548;2023-02-01T13:35:00;14.38;;;2.87;;
24637;SDS011;12773;50.162;8.548;2023-02-01T13:41:06;11.68;;;2.30;;
24637;SDS011;12773;50.162;8.548;2023-02-01T13:43:58;9.73;;;2.67;;
24637;SDS011;12773;50.162;8.548;2023-02-01T13:46:46;16.10;;;3.05;;
24637;SDS011;12773;50.162;8.548;2023-02-01T13:49:38;13.20;;;3.05;;
24637;SDS011;12773;50.162;8.548;2023-02-01T13:53:03;20.32;;;2.87;;
24637;SDS011;12773;50.162;8.548;2023-02-01T13:58:19;21.65;;;5.42;;
24637;SDS011;12773;50.162;8.548;2023-02-01T14:04:58;16.97;;;2.87;;
24637;SDS011;12773;50.162;8.548;2023-02-01T14:07:20;12.75;;;2.50;;
24637;SDS011;12773;50.162;8.548;2023-02-01T14:13:34;14.28;;;3.17;;
24637;SDS011;12773;50.162;8.548;2023-02-01T14:16:23;18.00;;;4.20;;
24637;SDS011;12773;50.162;8.548;2023-02-01T14:19:22;13.90;;;2.30;;
24637;SDS011;12773;50.162;8.548;2023-02-01T14:25:16;17.40;;;3.15;;
24637;SDS011;12773;50.162;8.548;2023-02-01T14:28:12;14.65;;;2.52;;
24637;SDS011;12773;50.162;8.548;2023-02-01T14:31:13;8.35;;;2.33;;
24637;SDS011;12773;50.162;8.548;2023-02-01T14:34:02;9.93;;;2.07;;
24637;SDS011;12773;50.162;8.548;2023-02-01T14:36:58;15.83;;;2.70;;
24637;SDS011;12773;50.162;8.548;2023-02-01T14:51:16;12.80;;;2.20;;
24637;SDS011;12773;50.162;8.548;2023-02-01T14:54:06;12.55;;;1.72;;
24637;SDS011;12773;50.162;8.548;2023-02-01T14:56:55;8.20;;;1.70;;
24637;SDS011;12773;50.162;8.548;2023-02-01T14:59:44;9.53;;;2.27;;
24637;SDS011;12773;50.162;8.548;2023-02-01T15:02:33;10.85;;;1.62;;
24637;SDS011;12773;50.162;8.548;2023-02-01T15:05:25;10.45;;;2.15;;
24637;SDS011;12773;50.162;8.548;2023-02-01T15:08:17;10.70;;;1.70;;
24637;SDS011;12773;50.162;8.548;2023-02-01T15:11:08;12.68;;;1.80;;
24637;SDS011;12773;50.162;8.548;2023-02-01T15:13:57;5.37;;;1.45;;
24637;SDS011;12773;50.162;8.548;2023-02-01T15:16:45;12.25;;;2.37;;
24637;SDS011;12773;50.162;8.548;2023-02-01T15:19:34;10.20;;;1.87;;
24637;SDS011;12773;50.162;8.548;2023-02-01T15:22:21;16.07;;;2.20;;
24637;SDS011;12773;50.162;8.548;2023-02-01T15:25:19;7.53;;;1.80;;
24637;SDS011;12773;50.162;8.548;2023-02-01T15:28:10;8.75;;;1.60;;
24637;SDS011;12773;50.162;8.548;2023-02-01T15:30:59;10.45;;;1.55;;
24637;SDS011;12773;50.162;8.548;2023-02-01T15:33:57;11.30;;;1.45;;
24637;SDS011;12773;50.162;8.548;2023-02-01T15:36:44;10.72;;;1.77;;
24637;SDS011;12773;50.162;8.548;2023-02-01T15:39:34;6.85;;;1.47;;
24637;SDS011;12773;50.162;8.548;2023-02-01T15:42:22;9.30;;;2.47;;
24637;SDS011;12773;50.162;8.548;2023-02-01T15:45:22;14.68;;;4.05;;
24637;SDS011;12773;50.162;8.548;2023-02-01T15:48:11;23.70;;;4.92;;
24637;SDS011;12773;50.162;8.548;2023-02-01T15:50:57;17.87;;;3.80;;
24637;SDS011;12773;50.162;8.548;2023-02-01T15:53:45;25.05;;;7.95;;
24637;SDS011;12773;50.162;8.548;2023-02-01T15:56:38;14.38;;;2.90;;
24637;SDS011;12773;50.162;8.548;2023-02-01T15:59:35;20.05;;;5.47;;
24637;SDS011;12773;50.162;8.548;2023-02-01T16:02:27;20.35;;;3.85;;
24637;SDS011;12773;50.162;8.548;2023-02-01T16:05:31;20.05;;;5.12;;
24637;SDS011;12773;50.162;8.548;2023-02-01T16:08:29;20.43;;;4.92;;
24637;SDS011;12773;50.162;8.548;2023-02-01T16:11:30;14.93;;;2.70;;
24637;SDS011;12773;50.162;8.548;2023-02-01T16:14:19;29.63;;;6.65;;
24637;SDS011;12773;50.162;8.548;2023-02-01T16:17:07;27.15;;;6.10;;
24637;SDS011;12773;50.162;8.548;2023-02-01T16:19:55;17.48;;;3.45;;
24637;SDS011;12773;50.162;8.548;2023-02-01T16:22:43;14.75;;;3.87;;
24637;SDS011;12773;50.162;8.548;2023-02-01T16:25:30;14.60;;;4.30;;
24637;SDS011;12773;50.162;8.548;2023-02-01T16:28:18;14.40;;;3.83;;
24637;SDS011;12773;50.162;8.548;2023-02-01T16:31:08;12.35;;;4.72;;
24637;SDS011;12773;50.162;8.548;2023-02-01T16:33:57;24.20;;;6.12;;
24637;SDS011;12773;50.162;8.548;2023-02-01T16:36:48;25.30;;;5.35;;
24637;SDS011;12773;50.162;8.548;2023-02-01T16:39:40;12.60;;;2.62;;
24637;SDS011;12773;50.162;8.548;2023-02-01T16:42:28;15.03;;;2.02;;
24637;SDS011;12773;50.162;8.548;2023-02-01T16:45:16;9.70;;;2.37;;
24637;SDS011;12773;50.162;8.548;2023-02-01T16:48:03;5.90;;;1.30;;
24637;SDS011;12773;50.162;8.548;2023-02-01T16:50:54;10.15;;;1.98;;
24637;SDS011;12773;50.162;8.548;2023-02-01T16:53:46;8.03;;;1.87;;
24637;SDS011;12773;50.162;8.548;2023-02-01T16:56:41;7.67;;;1.77;;
24637;SDS011;12773;50.162;8.548;2023-02-01T16:59:26;9.20;;;1.72;;
24637;SDS011;12773;50.162;8.548;2023-02-01T17:02:19;14.85;;;2.25;;
24637;SDS011;12773;50.162;8.548;2023-02-01T17:05:04;13.88;;;2.00;;
24637;SDS011;12773;50.162;8.548;2023-02-01T17:07:52;9.68;;;2.58;;
24637;SDS011;12773;50.162;8.548;2023-02-01T17:10:39;11.05;;;1.77;;
24637;SDS011;12773;50.162;8.548;2023-02-01T17:13:26;11.45;;;1.50;;
24637;SDS011;12773;50.162;8.548;2023-02-01T17:19:14;6.12;;;1.55;;
24637;SDS011;12773;50.162;8.548;2023-02-01T17:24:51;5.85;;;1.65;;
24637;SDS011;12773;50.162;8.548;2023-02-01T17:27:39;13.68;;;2.00;;
24637;SDS011;12773;50.162;8.548;2023-02-01T17:30:26;11.38;;;1.90;;
24637;SDS011;12773;50.162;8.548;2023-02-01T17:33:19;14.43;;;1.85;;
24637;SDS011;12773;50.162;8.548;2023-02-01T17:36:14;14.07;;;1.70;;
24637;SDS011;12773;50.162;8.548;2023-02-01T17:39:03;9.73;;;1.95;;
24637;SDS011;12773;50.162;8.548;2023-02-01T17:41:51;14.55;;;2.12;;
24637;SDS011;12773;50.162;8.548;2023-02-01T17:44:38;10.40;;;1.40;;
24637;SDS011;12773;50.162;8.548;2023-02-01T17:47:25;4.87;;;1.42;;
24637;SDS011;12773;50.162;8.548;2023-02-01T17:50:12;14.53;;;2.12;;
24637;SDS011;12773;50.162;8.548;2023-02-01T17:53:00;9.73;;;1.55;;
24637;SDS011;12773;50.162;8.548;2023-02-01T17:55:47;7.87;;;1.60;;
24637;SDS011;12773;50.162;8.548;2023-02-01T17:58:35;9.53;;;1.67;;
24637;SDS011;12773;50.162;8.548;2023-02-01T18:01:23;10.43;;;2.33;;
24637;SDS011;12773;50.162;8.548;2023-02-01T18:04:11;9.45;;;2.45;;
24637;SDS011;12773;50.162;8.548;2023-02-01T18:06:59;11.70;;;2.02;;
24637;SDS011;12773;50.162;8.548;2023-02-01T18:09:47;10.68;;;2.20;;
24637;SDS011;12773;50.162;8.548;2023-02-01T18:12:34;13.55;;;2.17;;
24637;SDS011;12773;50.162;8.548;2023-02-01T18:15:24;7.37;;;1.52;;
24637;SDS011;12773;50.162;8.548;2023-02-01T18:18:12;16.07;;;2.02;;
24637;SDS011;12773;50.162;8.548;2023-02-01T18:21:00;13.13;;;2.30;;
24637;SDS011;12773;50.162;8.548;2023-02-01T18:23:47;14.07;;;2.20;;
24637;SDS011;12773;50.162;8.548;2023-02-01T18:26:34;9.25;;;2.20;;
24637;SDS011;12773;50.162;8.548;2023-02-01T18:29:21;10.00;;;2.22;;
24637;SDS011;12773;50.162;8.548;2023-02-01T18:32:08;7.10;;;1.55;;
24637;SDS011;12773;50.162;8.548;2023-02-01T18:34:56;13.85;;;2.37;;
24637;SDS011;12773;50.162;8.548;2023-02-01T18:37:45;10.53;;;2.30;;
24637;SDS011;12773;50.162;8.548;2023-02-01T18:40:34;12.40;;;2.50;;
24637;SDS011;12773;50.162;8.548;2023-02-01T18:43:26;11.95;;;2.10;;
24637;SDS011;12773;50.162;8.548;2023-02-01T18:46:14;9.88;;;2.27;;